Hlavní strana
METAR-TAF:

METAR-TAF

Letiště :

Letiště Gran Canaria

Gran Canaria, Španělsko

zeměpisná šířka: 27-56N, zeměpisná délka: 015-23W, výška: 23 m

Aktuální stav počasí

Zpráva byla vytvořena před 35 minutami, v 22:00 UTC
vítr z různých směrů 2 kt
Teplota 21°C
Vlhkost vzduchu 73%
Tlak 1018 hPa
Viditelnost 10 km a více
Skoro jasno ve výšce 3500 ft

METAR: GCLP 222200Z VRB02KT 9999 FEW035 21/16 Q1018 NOSIG

Čas: 22:35 (22:35 UTC)

Předpověď počasí

Zpráva byla vytvořena před 2 hodinami a 35 minutami, v 20:00 UTC
Předpověď platná od 22 v 21 UTC do 23 v 21 UTC
Západní vítr 5 kt
Viditelnost 10 km a více
Polojasno ve výšce 3000 ft
Změna
od 23 v 09 UTC do 23 v 11 UTC
Severní vítr 12 kt
Pravděpodobnost 30%
od 23 v 12 UTC do 23 v 21 UTC
Viditelnost: 4900 m
mrholení, déšť

TAF: GCLP 222000Z 2221/2321 28005KT 9999 SCT030 TX25/2314Z TN17/2306Z BECMG 2309/2311 36012KT PROB30 2312/2321 4900 DZRA

Stav a předpovědi počasí z více než 4 000 letišť (zprávy METAR a TAF).

Červené a žluté tečky na mapě představují dostupné meteorologické stanice.

Když kurzor umístíte na tečku, zobrazí se název stanice.

Pak kliknutím zobrazíte stav a předpověď počasí.

Chcete-li změnit mapu, kliknutím na zelené tlačítko se znaménkem +mapu přiblížíte, kliknutím na zelené tlačítko se znaménkem – mapu oddálíte a kliknutím na zelené šipky přejdete na sousední mapy.


METAR-TAF: